Pagrindinis puslapis
METAR-TAF:

METAR-TAF

Oro uostai :

Liuleo, Švedija

platuma: 65-33N, ilguma: 022-08E, Aukštis: 17 m

Dabartinis oras

Ataskaita buvo paskelbta 36 minutes, ne 02:20 UTC
Vėjas 9 kt iš Šiaurės/Šiaurės Vakarų
Temperatūra 10°C
Drėgmė 93%
Slėgis 1015 hPa
Matomumas 10 km arba daugiau

METAR: ESPA 240220Z AUTO 33009KT 9999 NCD 10/09 Q1015

Laikas: 04:56 (02:56 UTC)

Prognozė

Ataskaita buvo paskelbta 6 valandos ir 26 minutes, ne 20:30 UTC
Prognozė galioja nuo 23 metu 21 UTC su 23 metu 23 UTC
Vėjas 9 kt iš Šiaurės
Matomumas 10 km arba daugiau
Apsiniaukę ne aukštis 400 ft
Laikinai
nuo 23 metu 21 UTC su 23 metu 23 UTC
Matomumas: 3000 m
Išsisklaidę debesys ne aukštis 400 ft
lietus, rūkana

TAF: ESPA 232030Z 2321/2323 35009KT 9999 OVC004 TEMPO 2321/2323 3000 -RA BR SCT004

Orai ataskaitas ir orų prognozės (METAR, TAF).

turimą stotys yra geltonos ir raudonos taškus žemėlapyje.

Perkelti pele per norėdami pamatyti stoties vardą.

Tada spustelėkite, norėdami matyti oro stebėjimo ir prognozės.

Norėdami pakeisti žemėlapį: spustelėkite ant žalios mygtukų su juodo kryžiaus žemyn,; žalią mygtuką su brūkšneliu, jei norite nutolinti; arba žalių rodyklių gretimoms žemėlapius.


METAR-TAF: